Garnavillo, IA

11:04 PM CST on February 07, 2016 (GMT -0600)
Prairie Du Chien Municipal | | Change Station
CLOSE
Current Station
Airport
Location: Prairie Du Chien,
Elevation: 659 ft
Nearby Weather Stations
Active Advisory: Winter Weather Advisory Active Notice: Public Information Statement

Elev 659 ft 43.02 °N, 91.12 °W | Updated 29 minutes ago

Overcast
Overcast
34 °F
Feels Like 24 °F
N
16
Wind Variable Wind from West
Gusts 26 mph

Today
High -- | Low -- °F
--% Chance of Precip.
Yesterday
High -- | Low -- °F
Precip. -- in
Pressure 29.68 in
Visibility 10.0 miles
Clouds Overcast 1800 ft
Windchill 24 °F
Dew Point 27 °F
Humidity 75%
Rainfall 0.00 in
Snow Depth Not available.
7:13 AM 5:25 PM
Waning Crescent, 0% visible
METAR KPDC 080435Z AUTO 28014G23KT 10SM OVC018 01/M03 A2968 RMK AO2 T00101029
Pressure 29.68 in
Visibility 10.0 miles
Clouds Overcast 1800 ft
Windchill 24 °F
Dew Point 27 °F
Humidity 75%
Rainfall 0.00 in
Snow Depth Not available.
7:13 AM 5:25 PM
Waning Crescent, 0% visible
METAR KPDC 080435Z AUTO 28014G23KT 10SM OVC018 01/M03 A2968 RMK AO2 T00101029

10-Day Weather Forecast

Almanac

Astronomy

Feb. 07, 2016 Rise Set
Actual Time
Civil Twilight
Nautical Twilight
Astronomical Twilight
Moon
Length of Visible Light
Length of Day
Tomorrow will be .
, % of the Moon is Illuminated

Today's Extremes

State Highs State Lows

Community

WunderPhotos

Upload Photos

1,891,382 photos uploaded!

WunderBlog® & News

Nearby

Air Quality

  Air Quality AQ Index Pollutant
Not available.

Snow Depth

Station Depth Elevation

Earthquake Activity

City Distance Mag. Time & Date
Minimum magnitude displayed is 2.5.

Coastal Water Temperatures

Place Temperature

Stations

Nearby Weather Stations

Station Location Temp. Windchill Dew Point Humidity Wind Precip. Elev Updated Type
                   

Watches & Warnings

Winter Weather Advisory
Issued: 8:58 PM CST Feb. 7, 2016 – National Weather Service

... Winter Weather Advisory remains in effect until 6 PM CST
Monday...

* expect snow and blowing snow to develop late this evening and
continue through Monday afternoon.

* Total snow accumulations up to 2 inches is expected.

* Winds gusting as high as 40 mph will cause areas of blowing
and drifting snow... especially on ridge tops and in open
areas. In addition... expect poor visibility at times.

* Plan on slippery Road conditions... including the Monday
morning commute. Travel may become difficult at times.

Precautionary/preparedness actions...

A Winter Weather Advisory for snow means periods of snow will
cause primarily travel difficulties. Be prepared for snow covered
roads and limited visibilities... and use caution while driving.
The latest Road conditions for the state you are calling from can
be obtained by calling 5 1 1.


Rogers